Terminal Aerodrome Forecast
Issued by NWS Corpus Christi, TX

Home | Current Version | Previous Version | Text Only | Print | Product List | Glossary On
Versions: 1 2 3 4 5 6 7 8 9 10 11 12 13 14 15
000
FTUS44 KCRP 301100
TAFVCT
TAF
KVCT 301128Z 3012/3112 VRB06KT P6SM SCT025 SCT250
      TEMPO 3012/3013 5SM BR
     FM302100 16015G22KT P6SM FEW050 SCT250
     FM310100 15010KT P6SM FEW015 SCT250
      TEMPO 3110/3112 5SM BR SCT015=

USA.gov is the U.S. government's official web portal to all federal, state and local government web resources and services.